Terminal Aerodrome Forecast
Issued by NWS

Home | Current Version | Previous Version | Text Only | Print | Product List | Glossary On
Versions: 1 2 3 4 5 6 7 8 9 10 11 12 13 14 15 16 17 18 19
000
FTUS45 KABQ 290500
TAFTCC
TAF
KTCC 290520Z 2906/3006 17005KT P6SM VCSH FEW060 BKN110
     FM290900 VRB06KT 6SM RA BR BKN030 OVC050
     FM291600 17010KT P6SM VCSH BKN035 BKN060
     FM292200 22015G23KT P6SM VCTS SCT050CB BKN080
     FM300100 19010KT P6SM VCSH SCT080 SCT130=

USA.gov is the U.S. government's official web portal to all federal, state and local government web resources and services.